Time;durP1;ratioP1;P1;durP2;ratioP2;P2;SDS_P1;SDS_P2;PMS_P1;PMS_P2;Temp;Humidity;BMP_temperature;BMP_pressure;BME280_temperature;BME280_humidity;BME280_pressure;Samples;Min_cycle;Max_cycle;Signal;HPM_P1;HPM_P2
2022/02/07 00:00:22;;;;;;;16.80;2.07;;;;;;;1.55;84.47;97771.44;5063390;28;20040;-66
2022/02/07 00:05:27;;;;;;;8.77;1.88;;;;;;;1.47;84.75;97789.44;5063057;28;20524;-65
2022/02/07 00:07:53;;;;;;;10.70;1.95;;;;;;;1.44;84.82;97792.03;5063340;28;20040;-66
2022/02/07 00:10:19;;;;;;;5.47;1.27;;;;;;;1.40;84.71;97800.63;5063206;28;20024;-65
2022/02/07 00:12:47;;;;;;;7.90;1.30;;;;;;;1.38;84.73;97811.72;5063382;28;20040;-65
2022/02/07 00:15:14;;;;;;;9.60;1.40;;;;;;;1.29;84.38;97808.44;5061763;28;20020;-66
2022/02/07 00:17:39;;;;;;;6.72;1.63;;;;;;;1.30;84.56;97809.28;5063182;28;20045;-65
2022/02/07 00:20:11;;;;;;;4.90;1.10;;;;;;;1.30;84.43;97816.94;5062999;28;20032;-65
2022/02/07 00:22:36;;;;;;;8.73;1.30;;;;;;;1.30;84.47;97828.03;5063412;28;20021;-66
2022/02/07 00:25:03;;;;;;;9.52;1.95;;;;;;;1.27;84.24;97830.63;5062881;28;20040;-66
2022/02/07 00:27:28;;;;;;;5.90;1.02;;;;;;;1.25;84.44;97832.34;5063113;28;20025;-66
2022/02/07 00:29:53;;;;;;;11.02;1.23;;;;;;;1.28;84.62;97834.03;5062868;28;20087;-65
2022/02/07 00:32:19;;;;;;;7.55;1.25;;;;;;;1.27;84.51;97842.53;5063115;28;20021;-65
2022/02/07 00:34:44;;;;;;;7.72;1.40;;;;;;;1.19;84.04;97840.09;5061426;28;20032;-66
2022/02/07 00:37:09;;;;;;;9.35;1.00;;;;;;;1.21;83.80;97846.88;5062989;28;20043;-65
2022/02/07 00:39:45;;;;;;;11.60;2.15;;;;;;;1.18;83.77;97854.56;5062835;28;20029;-65
2022/02/07 00:42:21;;;;;;;9.55;2.08;;;;;;;1.17;83.65;97875.03;5063158;28;20047;-66
2022/02/07 00:44:48;;;;;;;7.68;1.10;;;;;;;1.24;84.36;97876.66;5062948;28;20050;-66
2022/02/07 00:47:15;;;;;;;6.15;1.23;;;;;;;1.26;84.60;97874.09;5062917;28;20021;-66
2022/02/07 00:49:43;;;;;;;5.18;1.23;;;;;;;1.27;84.60;97886.00;5062638;28;20104;-66
2022/02/07 00:52:08;;;;;;;7.97;1.52;;;;;;;1.25;84.72;97892.84;5062901;28;20017;-66
2022/02/07 00:54:34;;;;;;;6.93;1.40;;;;;;;1.26;84.80;97886.88;5062739;28;20021;-67
2022/02/07 00:57:00;;;;;;;3.78;1.67;;;;;;;1.28;84.62;97890.25;5062835;28;20040;-66
2022/02/07 00:59:25;;;;;;;12.20;1.65;;;;;;;1.20;84.56;97891.19;5062716;28;20055;-65
2022/02/07 01:01:50;;;;;;;10.15;1.85;;;;;;;1.34;84.96;97908.09;5061384;28;20025;-65
2022/02/07 01:04:16;;;;;;;5.00;1.35;;;;;;;1.32;84.59;97913.22;5062528;28;20024;-66
2022/02/07 01:06:41;;;;;;;10.57;1.42;;;;;;;1.31;84.32;97916.63;5062796;28;20029;-65
2022/02/07 01:09:19;;;;;;;7.90;1.48;;;;;;;1.26;84.33;97915.84;5062733;28;20025;-65
2022/02/07 01:12:11;;;;;;;7.80;1.40;;;;;;;1.29;83.85;97920.91;5062887;28;20104;-65
2022/02/07 01:15:02;;;;;;;8.52;1.52;;;;;;;1.29;84.31;97920.06;5066436;28;20017;-65
2022/02/07 01:22:58;;;;;;;8.55;1.40;;;;;;;1.24;83.01;97927.78;5066512;28;20572;-65
2022/02/07 01:57:30;;;;;;;10.23;1.75;;;;;;;1.38;85.12;98027.34;5065936;28;20179;-66
2022/02/07 01:59:57;;;;;;;14.07;1.50;;;;;;;1.40;85.51;98029.88;5065438;28;20056;-64
2022/02/07 02:02:23;;;;;;;4.40;1.40;;;;;;;1.43;85.42;98029.84;5065440;28;20032;-64
2022/02/07 02:04:48;;;;;;;7.55;1.33;;;;;;;1.44;85.75;98032.41;5065443;28;20222;-65
2022/02/07 02:07:15;;;;;;;10.35;2.03;;;;;;;1.48;85.52;98044.31;5065611;28;20457;-65
2022/02/07 02:09:41;;;;;;;7.88;1.55;;;;;;;1.47;84.99;98047.69;5065369;28;20090;-66
2022/02/07 02:12:07;;;;;;;10.40;1.90;;;;;;;1.52;85.07;98051.94;5065461;28;20025;-66
2022/02/07 02:38:19;;;;;;;11.18;1.60;;;;;;;1.61;83.88;98097.88;5064888;28;20028;-66
2022/02/07 02:46:18;;;;;;;12.35;1.50;;;;;;;1.66;84.29;98114.03;5064336;28;20063;-65
2022/02/07 02:48:44;;;;;;;8.88;1.40;;;;;;;1.69;84.40;98111.44;5064394;28;20033;-66
2022/02/07 02:51:09;;;;;;;7.38;1.63;;;;;;;1.68;84.59;98117.41;5063911;28;20281;-66
2022/02/07 02:53:35;;;;;;;9.63;1.45;;;;;;;1.71;84.93;98125.06;5064191;28;20048;-66
2022/02/07 02:56:01;;;;;;;8.90;1.60;;;;;;;1.70;84.57;98118.25;5063883;28;20043;-66
2022/02/07 02:58:26;;;;;;;8.10;1.60;;;;;;;1.73;83.57;98122.50;5064047;28;20021;-66
2022/02/07 03:00:53;;;;;;;9.00;1.50;;;;;;;1.78;84.38;98135.25;5063830;28;20025;-66
2022/02/07 03:03:19;;;;;;;13.68;2.75;;;;;;;1.79;84.43;98147.19;5062359;28;20028;-66
2022/02/07 03:05:46;;;;;;;14.07;1.77;;;;;;;1.80;84.70;98157.41;5063794;28;20024;-66
2022/02/07 03:08:13;;;;;;;12.20;1.33;;;;;;;1.81;84.87;98151.41;5064016;28;20472;-66
2022/02/07 03:18:33;;;;;;;9.25;1.77;;;;;;;1.77;85.06;98171.94;5063860;28;20040;-66
2022/02/07 03:20:59;;;;;;;11.27;2.55;;;;;;;1.80;85.25;98184.69;5063519;28;20029;-66
2022/02/07 03:23:25;;;;;;;5.38;1.30;;;;;;;1.79;85.18;98190.69;5063712;28;20025;-66
2022/02/07 03:25:51;;;;;;;11.60;1.80;;;;;;;1.79;85.08;98201.75;5063478;28;20225;-66
2022/02/07 03:28:18;;;;;;;12.18;1.55;;;;;;;1.78;85.06;98214.56;5063568;28;20033;-66
2022/02/07 03:30:44;;;;;;;12.77;1.70;;;;;;;1.76;84.67;98216.28;5063400;28;20029;-65
2022/02/07 03:33:09;;;;;;;8.07;1.60;;;;;;;1.77;84.88;98217.97;5062051;28;20032;-66
2022/02/07 03:35:35;;;;;;;6.97;1.35;;;;;;;1.77;85.00;98215.44;5062849;28;20025;-65
2022/02/07 03:38:02;;;;;;;6.93;0.90;;;;;;;1.72;84.87;98221.44;5063182;28;20053;-66
2022/02/07 03:40:27;;;;;;;7.78;1.60;;;;;;;1.71;84.37;98219.72;5061895;28;20072;-66
2022/02/07 03:42:53;;;;;;;8.25;2.10;;;;;;;1.78;84.35;98229.91;5063398;28;20017;-65
2022/02/07 03:45:18;;;;;;;8.82;1.73;;;;;;;1.78;84.82;98240.13;5063069;28;20104;-66
2022/02/07 03:47:44;;;;;;;5.13;1.00;;;;;;;1.81;85.05;98237.56;5063243;28;20469;-66
2022/02/07 03:50:10;;;;;;;4.03;1.30;;;;;;;1.80;85.17;98248.66;5063064;28;20024;-66
2022/02/07 03:52:36;;;;;;;9.73;1.50;;;;;;;1.81;85.06;98247.78;5063317;28;20032;-66
2022/02/07 03:55:02;;;;;;;6.68;1.75;;;;;;;1.81;84.61;98263.13;5063206;28;20028;-66
2022/02/07 03:57:27;;;;;;;9.20;1.48;;;;;;;1.83;84.70;98261.44;5063146;28;20135;-66
2022/02/07 03:59:52;;;;;;;5.10;1.10;;;;;;;1.88;84.94;98257.13;5062959;28;20072;-65
2022/02/07 04:02:19;;;;;;;6.43;1.45;;;;;;;1.92;84.87;98266.47;5062870;28;20025;-66
2022/02/07 04:04:51;;;;;;;16.02;1.60;;;;;;;1.92;84.35;98278.41;5062950;28;20025;-66
2022/02/07 04:07:17;;;;;;;;;;;;;;;1.97;84.16;98290.31;5063631;28;20024;-66
2022/02/07 04:09:46;;;;;;;6.47;1.45;;;;;;;1.98;84.56;98286.06;5062970;28;19930;-65
2022/02/07 04:12:19;;;;;;;4.63;1.10;;;;;;;1.94;84.85;98286.94;5063130;28;20024;-65
2022/02/07 04:14:45;;;;;;;5.60;1.95;;;;;;;1.99;84.41;98308.22;5062886;28;20025;-66
2022/02/07 04:17:15;;;;;;;9.73;1.25;;;;;;;1.77;83.94;98274.28;5062759;28;20229;-65
2022/02/07 04:19:40;;;;;;;9.45;1.48;;;;;;;2.08;84.22;98314.97;5062692;28;20025;-66
2022/02/07 04:22:08;;;;;;;5.63;1.20;;;;;;;2.08;84.10;98320.09;5062743;28;20044;-66
2022/02/07 04:24:34;;;;;;;12.20;1.48;;;;;;;2.12;84.09;98328.59;5062762;28;20442;-66
2022/02/07 04:26:59;;;;;;;4.80;1.48;;;;;;;2.10;84.13;98323.50;5062741;28;20088;-66
2022/02/07 04:29:25;;;;;;;6.55;1.58;;;;;;;2.15;84.49;98329.44;5062517;28;20025;-66
2022/02/07 04:31:50;;;;;;;7.40;1.40;;;;;;;2.18;84.51;98334.53;5062703;28;20040;-66
2022/02/07 04:34:16;;;;;;;6.55;0.93;;;;;;;2.19;84.73;98343.91;5062340;28;20043;-65
2022/02/07 04:36:44;;;;;;;7.40;1.55;;;;;;;2.22;84.71;98351.56;5062476;28;20078;-66
2022/02/07 04:39:09;;;;;;;9.82;2.17;;;;;;;2.17;84.60;98355.03;5063084;28;20056;-67
2022/02/07 04:41:34;;;;;;;13.82;1.38;;;;;;;2.16;83.72;98366.97;5062657;28;20044;-66
2022/02/07 04:44:05;;;;;;;5.43;1.20;;;;;;;2.16;84.02;98373.78;5062990;28;20112;-67
2022/02/07 04:47:32;;;;;;;9.73;1.20;;;;;;;2.10;83.61;98374.69;5062515;28;20028;-66
2022/02/07 04:49:43;;;;;;;6.22;1.40;;;;;;;2.19;83.98;98392.56;5063063;28;20460;-66
2022/02/07 04:52:40;;;;;;;9.85;1.80;;;;;;;2.17;82.89;98398.56;5066805;28;20028;-66
2022/02/07 04:55:17;;;;;;;6.78;1.25;;;;;;;2.15;82.77;98406.25;5066444;28;20515;-66
2022/02/07 04:57:49;;;;;;;10.77;2.08;;;;;;;2.14;82.17;98412.22;5066625;28;20028;-67
2022/02/07 05:02:53;;;;;;;10.52;1.65;;;;;;;2.12;82.21;98421.63;5066488;28;20025;-66
2022/02/07 05:16:17;;;;;;;9.23;1.67;;;;;;;2.16;82.31;98455.72;5066228;28;20025;-66
2022/02/07 05:18:43;;;;;;;5.53;1.20;;;;;;;2.12;81.87;98462.59;5066316;28;20029;-65
2022/02/07 05:21:09;;;;;;;14.48;2.05;;;;;;;2.13;81.53;98466.84;5065852;28;20753;-65
2022/02/07 05:23:34;;;;;;;11.43;1.20;;;;;;;2.14;81.46;98471.09;5066045;28;20197;-65
2022/02/07 05:25:59;;;;;;;10.43;1.67;;;;;;;2.15;81.20;98469.38;5065939;28;20029;-66
2022/02/07 05:28:25;;;;;;;7.43;1.30;;;;;;;2.12;81.29;98474.53;5065898;28;20469;-66
2022/02/07 05:30:50;;;;;;;4.90;1.17;;;;;;;2.10;80.18;98479.66;5065852;28;20240;-65
2022/02/07 05:33:15;;;;;;;7.93;1.77;;;;;;;2.16;80.74;98489.88;5065935;28;20025;-67
2022/02/07 05:35:41;;;;;;;5.72;1.15;;;;;;;2.14;81.10;98503.53;5065568;28;20021;-65
2022/02/07 05:38:08;;;;;;;9.95;2.08;;;;;;;2.17;81.77;98512.03;5064696;28;20021;-64
2022/02/07 05:40:47;;;;;;;7.40;1.38;;;;;;;2.12;82.19;98510.38;5065704;28;20052;-67
2022/02/07 05:43:14;;;;;;;11.27;2.05;;;;;;;2.16;82.35;98504.38;5065708;28;20037;-66
2022/02/07 05:45:39;;;;;;;9.23;1.55;;;;;;;2.20;82.72;98512.06;5065482;28;20065;-66
2022/02/07 05:48:04;;;;;;;10.07;2.53;;;;;;;2.19;82.91;98501.81;5065663;28;20104;-66
2022/02/07 05:50:30;;;;;;;11.52;2.15;;;;;;;2.21;81.93;98506.06;5063929;28;20025;-67
2022/02/07 05:52:57;;;;;;;10.20;1.65;;;;;;;2.19;82.01;98505.22;5065367;28;20043;-66
2022/02/07 05:55:22;;;;;;;11.32;1.30;;;;;;;2.25;82.62;98521.41;5065178;28;20051;-67
2022/02/07 05:57:48;;;;;;;12.85;1.73;;;;;;;2.26;83.06;98518.84;5065495;28;20092;-67
2022/02/07 06:00:13;;;;;;;14.65;1.75;;;;;;;2.28;83.36;98519.69;5063829;28;20028;-66
2022/02/07 06:02:39;;;;;;;11.88;1.70;;;;;;;2.34;83.55;98532.47;5065317;28;20035;-66
2022/02/07 06:05:04;;;;;;;10.57;2.35;;;;;;;2.33;83.53;98535.84;5064779;28;20016;-67
2022/02/07 06:07:30;;;;;;;8.05;2.15;;;;;;;2.39;83.72;98550.38;5065491;28;20033;-66
2022/02/07 06:09:55;;;;;;;9.80;1.67;;;;;;;2.39;83.75;98552.94;5064920;28;20021;-68
2022/02/07 06:12:20;;;;;;;2.08;0.95;;;;;;;2.37;83.35;98559.75;5065306;28;20029;-66
2022/02/07 06:14:46;;;;;;;15.45;2.00;;;;;;;2.40;81.61;98564.88;5065058;28;20104;-67
2022/02/07 06:17:11;;;;;;;9.60;1.88;;;;;;;2.45;82.26;98577.66;5065169;28;20048;-67
2022/02/07 06:19:37;;;;;;;6.95;1.63;;;;;;;2.49;82.30;98576.78;5064868;28;20021;-67
2022/02/07 06:22:03;;;;;;;8.45;1.50;;;;;;;2.45;81.30;98580.19;5064926;28;20107;-66
2022/02/07 06:24:28;;;;;;;14.43;2.80;;;;;;;2.47;80.87;98584.47;5064865;28;20104;-65
2022/02/07 06:26:54;;;;;;;10.70;1.95;;;;;;;2.51;81.57;98597.28;5064744;28;20043;-66
2022/02/07 06:29:19;;;;;;;12.25;2.30;;;;;;;2.54;80.98;98600.66;5064844;28;20260;-65
2022/02/07 06:31:44;;;;;;;21.52;2.88;;;;;;;2.55;80.91;98607.50;5064826;28;20477;-65
2022/02/07 06:34:10;;;;;;;13.02;4.35;;;;;;;2.59;81.32;98626.25;5064677;28;20369;-66
2022/02/07 06:36:35;;;;;;;6.55;1.67;;;;;;;2.64;81.44;98637.34;5064642;28;20021;-66
2022/02/07 06:39:00;;;;;;;12.05;2.70;;;;;;;2.68;79.81;98636.47;5064979;28;20028;-66
2022/02/07 06:41:26;;;;;;;10.73;2.20;;;;;;;2.66;80.36;98630.50;5064446;28;20503;-66
2022/02/07 06:43:51;;;;;;;14.85;2.58;;;;;;;2.71;80.58;98644.16;5064486;28;20055;-66
2022/02/07 06:46:17;;;;;;;9.75;2.13;;;;;;;2.69;80.56;98643.28;5064381;28;20111;-66
2022/02/07 06:48:42;;;;;;;14.10;2.30;;;;;;;2.73;81.25;98649.28;5064560;28;20102;-66
2022/02/07 06:51:07;;;;;;;12.70;1.92;;;;;;;2.71;80.15;98651.84;5064156;28;20025;-66
2022/02/07 06:53:33;;;;;;;10.10;2.20;;;;;;;2.71;80.00;98663.78;5064345;28;20021;-65
2022/02/07 06:55:59;;;;;;;9.18;2.08;;;;;;;2.66;79.71;98680.88;5064724;28;20272;-67
2022/02/07 06:58:24;;;;;;;15.05;2.50;;;;;;;2.67;79.92;98665.50;5064359;28;20401;-67
2022/02/07 07:00:50;;;;;;;11.73;2.90;;;;;;;2.70;79.68;98667.22;5064543;28;20116;-66
2022/02/07 07:03:19;;;;;;;16.58;2.25;;;;;;;2.65;79.56;98689.44;5064202;28;20029;-66
2022/02/07 07:05:44;;;;;;;15.80;2.75;;;;;;;2.68;79.18;98705.66;5063347;28;20181;-66
2022/02/07 07:08:10;;;;;;;18.70;2.55;;;;;;;2.69;79.33;98704.78;5063766;28;20026;-66
2022/02/07 07:10:35;;;;;;;12.27;2.30;;;;;;;2.70;79.57;98714.19;5063176;28;20431;-66
2022/02/07 07:13:08;;;;;;;31.33;4.30;;;;;;;2.70;78.88;98708.22;5063511;28;20383;-66
2022/02/07 07:15:43;;;;;;;10.38;2.50;;;;;;;2.68;79.51;98700.53;5063326;28;20361;-66
2022/02/07 07:18:09;;;;;;;12.80;2.60;;;;;;;2.75;79.97;98716.72;5063553;28;20076;-66
2022/02/07 07:20:35;;;;;;;10.45;2.53;;;;;;;2.75;79.56;98721.00;5063051;28;20075;-66
2022/02/07 07:23:01;;;;;;;14.98;3.17;;;;;;;2.77;79.64;98726.97;5063937;28;20017;-66
2022/02/07 07:25:29;;;;;;;7.03;1.85;;;;;;;2.79;78.72;98732.94;5063948;28;20045;-66
2022/02/07 07:28:04;;;;;;;17.20;3.72;;;;;;;2.80;79.26;98724.38;5063954;28;20021;-67
2022/02/07 07:30:34;;;;;;;12.80;2.22;;;;;;;2.85;79.39;98743.19;5064014;28;20041;-66
2022/02/07 07:33:06;;;;;;;12.98;2.00;;;;;;;2.88;80.04;98748.28;5063629;28;20029;-66
2022/02/07 07:35:31;;;;;;;15.02;2.92;;;;;;;2.96;79.66;98753.38;5062285;28;20029;-66
2022/02/07 07:37:57;;;;;;;12.75;2.78;;;;;;;2.95;78.32;98749.13;5063672;28;20078;-66
2022/02/07 07:40:22;;;;;;;13.48;3.10;;;;;;;3.11;79.07;98757.59;5063404;28;20044;-66
2022/02/07 07:42:53;;;;;;;20.55;2.67;;;;;;;3.29;79.24;98760.94;5063469;28;20385;-65
2022/02/07 07:45:22;;;;;;;11.00;2.53;;;;;;;3.54;79.31;98759.09;5063524;28;20028;-65
2022/02/07 07:47:50;;;;;;;17.42;2.05;;;;;;;3.80;79.67;98760.59;5063712;28;20040;-66
2022/02/07 07:50:31;;;;;;;18.60;2.88;;;;;;;4.13;79.79;98780.91;5063431;28;20021;-66
2022/02/07 07:53:06;;;;;;;10.40;2.13;;;;;;;4.45;77.96;98790.06;5063640;28;20048;-66
2022/02/07 08:03:31;;;;;;;14.23;2.60;;;;;;;5.73;75.76;98794.53;5063825;28;20036;-67
2022/02/07 08:06:14;;;;;;;16.08;3.17;;;;;;;6.07;74.30;98797.47;5063278;28;20096;-65
2022/02/07 08:08:48;;;;;;;8.43;1.98;;;;;;;6.48;73.13;98806.28;5063606;28;20031;-67
2022/02/07 08:11:15;;;;;;;15.10;2.60;;;;;;;6.90;72.10;98808.94;5063481;28;20025;-67
2022/02/07 08:13:43;;;;;;;13.77;3.00;;;;;;;7.14;71.64;98804.19;5063416;28;20028;-66
2022/02/07 08:16:09;;;;;;;9.70;2.42;;;;;;;7.44;70.92;98812.16;5063052;28;20028;-66
2022/02/07 08:18:34;;;;;;;10.38;2.08;;;;;;;7.60;69.98;98817.03;5063433;28;20411;-66
2022/02/07 08:20:59;;;;;;;14.00;2.50;;;;;;;7.83;70.16;98820.81;5063066;28;20046;-66
2022/02/07 08:23:25;;;;;;;19.52;2.58;;;;;;;8.15;69.92;98826.97;5065589;28;20024;-66
2022/02/07 08:25:52;;;;;;;18.02;2.80;;;;;;;8.33;67.85;98839.47;5067300;28;20071;-65
2022/02/07 08:28:17;;;;;;;14.25;2.20;;;;;;;8.36;68.07;98858.34;5067426;28;20028;-66
2022/02/07 08:30:43;;;;;;;12.77;3.38;;;;;;;8.15;67.22;98849.38;5066963;28;20017;-66
2022/02/07 08:33:08;;;;;;;15.35;2.50;;;;;;;7.85;66.16;98860.38;5066565;28;20017;-65
2022/02/07 08:35:33;;;;;;;17.08;2.30;;;;;;;7.67;67.85;98872.81;5066314;28;20029;-66
2022/02/07 08:37:59;;;;;;;23.45;3.45;;;;;;;7.57;67.14;98855.81;5064942;28;20024;-65
2022/02/07 08:40:26;;;;;;;11.65;2.83;;;;;;;7.72;68.36;98866.69;5066028;28;20094;-64
2022/02/07 08:42:53;;;;;;;9.77;2.67;;;;;;;8.29;67.96;98896.44;5066504;28;20033;-66
2022/02/07 08:45:19;;;;;;;10.50;2.88;;;;;;;8.82;67.49;98898.69;5064854;28;20052;-65
2022/02/07 08:47:44;;;;;;;15.88;3.53;;;;;;;9.22;65.68;98913.16;5066256;28;20032;-65
2022/02/07 08:50:11;;;;;;;9.95;2.72;;;;;;;9.43;64.56;98916.03;5066270;28;20029;-66
2022/02/07 08:52:41;;;;;;;17.17;3.28;;;;;;;9.81;64.13;98915.00;5066443;28;20025;-66
2022/02/07 08:55:11;;;;;;;14.80;2.13;;;;;;;10.19;60.50;98915.59;5066240;28;20094;-66
2022/02/07 08:57:40;;;;;;;13.10;2.60;;;;;;;10.27;59.55;98928.31;5066014;28;20052;-66
2022/02/07 09:00:18;;;;;;;10.68;2.58;;;;;;;10.38;60.16;98926.22;5065832;28;20035;-66
2022/02/07 09:08:06;;;;;;;11.02;2.05;;;;;;;10.82;60.75;98942.19;5066214;28;20025;-66
2022/02/07 09:10:32;;;;;;;10.82;2.25;;;;;;;11.23;60.94;98958.13;5065884;28;20088;-66
2022/02/07 09:12:57;;;;;;;11.43;2.72;;;;;;;11.56;59.90;98972.59;5065814;28;20063;-66
2022/02/07 09:15:39;;;;;;;12.63;2.17;;;;;;;11.74;58.20;98976.25;5065890;28;20048;-66
2022/02/07 09:18:07;;;;;;;9.55;2.45;;;;;;;11.88;59.60;98994.00;5065776;28;20029;-67
2022/02/07 09:20:36;;;;;;;10.20;2.38;;;;;;;11.85;56.56;99001.88;5065603;28;20029;-69
2022/02/07 09:23:03;;;;;;;11.80;2.78;;;;;;;11.94;57.33;99010.25;5065575;28;20029;-68
2022/02/07 09:25:28;;;;;;;8.90;2.60;;;;;;;11.88;59.94;99007.00;5065426;28;20059;-68
2022/02/07 09:27:55;;;;;;;11.32;2.17;;;;;;;11.91;56.77;99003.41;5065773;28;20021;-68
2022/02/07 09:30:21;;;;;;;15.93;2.10;;;;;;;12.07;55.35;99000.25;5065537;28;20025;-68
2022/02/07 09:32:46;;;;;;;7.55;2.35;;;;;;;12.25;56.33;99011.75;5065452;28;20045;-68
2022/02/07 09:35:13;;;;;;;8.40;2.03;;;;;;;12.39;54.41;98993.88;5065421;28;20029;-69
2022/02/07 09:37:38;;;;;;;9.63;2.92;;;;;;;12.23;57.34;99003.16;5065310;28;20021;-68
2022/02/07 09:40:05;;;;;;;12.05;2.40;;;;;;;12.49;53.34;98993.50;5065277;28;20075;-66
2022/02/07 09:42:31;;;;;;;11.93;2.33;;;;;;;12.25;57.63;98999.56;5065207;28;20028;-66
2022/02/07 09:45:07;;;;;;;16.58;3.20;;;;;;;12.23;53.81;99010.97;5065297;28;20078;-67
2022/02/07 09:47:33;;;;;;;15.23;2.58;;;;;;;12.22;54.93;99023.09;5065248;28;20081;-64
2022/02/07 09:49:58;;;;;;;9.15;2.88;;;;;;;12.20;56.34;99026.69;5065062;28;20016;-65
2022/02/07 09:52:24;;;;;;;17.25;3.00;;;;;;;12.17;58.89;99029.41;5065299;28;20036;-67
2022/02/07 09:54:50;;;;;;;10.27;2.45;;;;;;;12.23;57.24;99045.63;5065095;28;20034;-66
2022/02/07 09:57:19;;;;;;;11.73;2.50;;;;;;;12.20;59.14;99055.31;5065136;28;20021;-67
2022/02/07 09:59:45;;;;;;;7.63;2.05;;;;;;;12.16;57.76;99061.53;5063616;28;20055;-67
2022/02/07 10:02:52;;;;;;;13.80;2.38;;;;;;;12.06;60.17;99074.81;5064920;28;20017;-67
2022/02/07 10:05:24;;;;;;;13.18;2.53;;;;;;;12.00;61.06;99080.25;5064506;28;20100;-66
2022/02/07 10:08:15;;;;;;;7.13;1.80;;;;;;;11.98;63.07;99077.69;5064908;28;20102;-67
2022/02/07 10:46:14;;;;;;;8.88;2.33;;;;;;;11.58;59.11;99151.88;5063616;28;20229;-65
2022/02/07 10:48:54;;;;;;;10.50;2.40;;;;;;;11.26;60.33;99170.22;5064531;28;20041;-65
2022/02/07 10:51:33;;;;;;;11.73;2.47;;;;;;;11.14;60.93;99177.47;5063877;28;20108;-65
2022/02/07 10:54:11;;;;;;;13.15;2.53;;;;;;;11.13;58.31;99187.91;5064067;28;20105;-66
2022/02/07 10:56:43;;;;;;;19.10;2.70;;;;;;;10.85;58.51;99192.19;5064175;28;20519;-64
2022/02/07 10:59:13;;;;;;;14.27;2.70;;;;;;;10.62;59.52;99209.25;5063999;28;20111;-64
2022/02/07 11:04:21;;;;;;;11.27;2.85;;;;;;;10.14;59.00;99194.97;5064050;28;20024;-66
2022/02/07 11:06:50;;;;;;;10.75;3.30;;;;;;;10.02;60.38;99203.91;5063514;28;20055;-65
2022/02/07 11:24:58;;;;;;;8.13;1.77;;;;;;;11.50;54.66;99274.28;5063519;28;20025;-66
2022/02/07 11:27:37;;;;;;;11.07;2.20;;;;;;;11.93;54.39;99260.84;5063217;28;20473;-66
2022/02/07 11:30:09;;;;;;;14.00;2.10;;;;;;;12.19;51.77;99285.19;5063171;28;20040;-66
2022/02/07 11:32:41;;;;;;;16.70;2.13;;;;;;;12.34;51.22;99283.81;5062787;28;20021;-66
2022/02/07 11:35:09;;;;;;;16.88;2.65;;;;;;;12.44;51.81;99295.63;5062787;28;20028;-63
2022/02/07 11:37:34;;;;;;;13.48;2.42;;;;;;;12.76;53.35;99298.81;5062886;28;20092;-64
2022/02/07 11:39:59;;;;;;;9.85;2.65;;;;;;;12.98;52.66;99324.13;5062721;28;20033;-66
2022/02/07 11:42:25;;;;;;;20.67;2.70;;;;;;;13.22;52.16;99320.69;5062753;28;20103;-64
2022/02/07 11:44:51;;;;;;;12.43;2.50;;;;;;;12.62;52.53;99321.91;5062908;28;20268;-65
2022/02/07 11:47:22;;;;;;;15.48;2.53;;;;;;;12.08;53.49;99330.59;5062828;28;20050;-65
2022/02/07 11:50:00;;;;;;;18.92;3.22;;;;;;;11.74;55.66;99335.06;5062808;28;20349;-65
2022/02/07 11:52:29;;;;;;;14.10;3.13;;;;;;;11.94;54.31;99350.94;5062922;28;20103;-65
2022/02/07 11:55:02;;;;;;;8.45;2.65;;;;;;;12.18;54.06;99358.91;5062715;28;20029;-66
2022/02/07 11:57:36;;;;;;;20.05;2.70;;;;;;;12.21;53.63;99364.88;5061926;28;20025;-66
2022/02/07 12:00:20;;;;;;;21.02;3.45;;;;;;;11.25;54.83;99358.16;5062786;28;20029;-65
2022/02/07 12:02:50;;;;;;;13.50;3.03;;;;;;;10.09;57.20;99371.44;5062481;28;20052;-65
2022/02/07 12:05:21;;;;;;;19.08;2.60;;;;;;;9.09;60.06;99368.31;5062476;28;20025;-65
2022/02/07 12:08:05;;;;;;;17.13;3.23;;;;;;;8.32;62.05;99384.25;5062724;28;20501;-65
2022/02/07 12:13:01;;;;;;;11.95;3.95;;;;;;;7.35;62.89;99398.44;5062320;28;20017;-64
2022/02/07 12:15:45;;;;;;;17.35;2.55;;;;;;;6.99;64.80;99406.59;5062265;28;20020;-65
2022/02/07 12:18:13;;;;;;;19.88;2.88;;;;;;;6.70;64.57;99415.44;5062172;28;20035;-66
2022/02/07 12:20:42;;;;;;;12.00;1.92;;;;;;;6.51;66.60;99417.31;5062299;28;20021;-65
2022/02/07 12:23:15;;;;;;;12.40;2.40;;;;;;;6.37;67.36;99423.44;5062455;28;20075;-65
2022/02/07 12:26:00;;;;;;;11.07;3.08;;;;;;;6.27;68.18;99422.66;5062601;28;20025;-66
2022/02/07 12:28:48;;;;;;;12.70;2.47;;;;;;;6.20;68.86;99437.28;5062479;28;20401;-65
2022/02/07 12:31:21;;;;;;;8.00;1.88;;;;;;;6.16;70.08;99439.88;5061797;28;20048;-65
2022/02/07 12:33:53;;;;;;;18.02;3.15;;;;;;;6.07;70.28;99439.06;5062459;28;20044;-64
2022/02/07 12:36:19;;;;;;;10.27;3.05;;;;;;;6.08;70.54;99445.09;5061950;28;20021;-65
2022/02/07 12:38:44;;;;;;;12.68;2.20;;;;;;;6.04;70.68;99472.59;5062330;28;20078;-66
2022/02/07 12:41:15;;;;;;;12.32;1.70;;;;;;;6.00;70.07;99470.00;5061865;28;20049;-64
2022/02/07 12:43:45;;;;;;;16.00;2.20;;;;;;;6.03;70.29;99470.84;5062153;28;20080;-64
2022/02/07 12:46:14;;;;;;;10.32;2.33;;;;;;;5.99;70.22;99470.88;5062031;28;20049;-65
2022/02/07 12:48:58;;;;;;;13.57;2.10;;;;;;;5.97;70.67;99475.16;5062197;28;20048;-65
2022/02/07 12:51:30;;;;;;;9.48;1.60;;;;;;;5.97;70.78;99477.75;5061956;28;20501;-65
2022/02/07 12:53:56;;;;;;;11.48;2.35;;;;;;;5.89;69.98;99483.81;5062466;28;20055;-64
2022/02/07 12:56:23;;;;;;;12.85;2.38;;;;;;;5.90;70.69;99498.38;5062023;28;20037;-65
2022/02/07 12:58:50;;;;;;;7.95;2.30;;;;;;;5.83;70.78;99509.59;5062123;28;20031;-65
2022/02/07 13:01:18;;;;;;;11.23;2.33;;;;;;;5.83;71.54;99514.75;5061920;28;20048;-65
2022/02/07 13:03:52;;;;;;;15.32;2.20;;;;;;;5.84;71.54;99513.88;5062029;28;20039;-65
2022/02/07 13:06:24;;;;;;;11.65;2.05;;;;;;;5.79;70.90;99533.63;5061803;28;20017;-65
2022/02/07 13:08:50;;;;;;;9.65;2.97;;;;;;;5.75;70.29;99537.91;5063320;28;20033;-65
2022/02/07 13:11:28;;;;;;;11.80;2.08;;;;;;;5.66;69.22;99522.50;5065645;28;20053;-64
2022/02/07 13:13:54;;;;;;;18.58;2.65;;;;;;;5.69;71.17;99545.66;5065824;28;20020;-67
2022/02/07 13:16:21;;;;;;;8.60;2.25;;;;;;;5.63;71.44;99559.41;5065600;28;20029;-65
2022/02/07 13:18:47;;;;;;;13.65;2.50;;;;;;;5.67;71.93;99566.28;5065700;28;20051;-65
2022/02/07 13:21:17;;;;;;;10.63;3.20;;;;;;;5.63;72.00;99567.16;5065549;28;20038;-65
2022/02/07 13:23:42;;;;;;;12.60;2.45;;;;;;;5.62;72.12;99574.88;5065566;28;20079;-64
2022/02/07 13:26:10;;;;;;;8.73;2.28;;;;;;;5.60;72.68;99581.72;5065299;28;20025;-65
2022/02/07 13:28:39;;;;;;;12.02;2.78;;;;;;;5.59;72.61;99601.50;5065685;28;20021;-65
2022/02/07 13:31:06;;;;;;;9.70;1.83;;;;;;;5.58;73.60;99604.91;5065407;28;20025;-65
2022/02/07 13:33:52;;;;;;;9.02;2.15;;;;;;;5.59;73.88;99614.38;5065341;28;20100;-65
2022/02/07 13:36:43;;;;;;;9.90;1.77;;;;;;;5.54;74.44;99598.91;5065229;28;20028;-65
2022/02/07 13:39:08;;;;;;;18.13;2.17;;;;;;;5.55;73.11;99615.22;5065393;28;20073;-65
2022/02/07 13:41:34;;;;;;;8.60;1.67;;;;;;;5.54;74.00;99616.09;5065163;28;20049;-65
2022/02/07 13:44:00;;;;;;;15.25;2.83;;;;;;;5.49;74.20;99623.81;5065385;28;20051;-65
2022/02/07 13:46:28;;;;;;;12.98;1.80;;;;;;;5.47;73.89;99630.66;5065044;28;20028;-65
2022/02/07 13:48:56;;;;;;;12.50;3.15;;;;;;;5.45;73.22;99638.41;5065309;28;20071;-66
2022/02/07 13:51:21;;;;;;;15.00;2.05;;;;;;;5.45;73.83;99643.53;5064986;28;20063;-65
2022/02/07 13:53:47;;;;;;;12.07;2.22;;;;;;;5.39;73.45;99643.53;5065034;28;20081;-65
2022/02/07 13:56:12;;;;;;;9.07;1.73;;;;;;;5.39;73.75;99663.25;5064719;28;20037;-65
2022/02/07 13:58:40;;;;;;;17.17;2.42;;;;;;;5.37;74.39;99655.53;5064824;28;20496;-65
2022/02/07 14:01:10;;;;;;;14.10;3.60;;;;;;;5.43;74.84;99680.44;5063282;28;20297;-65
2022/02/07 14:03:48;;;;;;;9.25;2.40;;;;;;;5.40;75.17;99676.13;5064680;28;20028;-65
2022/02/07 14:06:19;;;;;;;16.85;1.90;;;;;;;5.38;73.47;99687.31;5064502;28;20078;-65
2022/02/07 14:08:47;;;;;;;12.93;2.38;;;;;;;5.37;73.69;99699.31;5064869;28;20075;-65
2022/02/07 14:11:16;;;;;;;9.05;1.73;;;;;;;5.38;74.86;99705.31;5064674;28;20198;-65
2022/02/07 14:13:42;;;;;;;14.63;2.55;;;;;;;5.38;74.97;99713.03;5064758;28;20091;-65
2022/02/07 14:16:09;;;;;;;12.55;2.08;;;;;;;5.37;75.39;99712.19;5064719;28;20074;-65
2022/02/07 14:18:45;;;;;;;6.95;1.88;;;;;;;5.33;74.88;99720.75;5064712;28;20021;-65
2022/02/07 14:21:10;;;;;;;20.67;3.05;;;;;;;5.29;74.34;99724.16;5063468;28;20032;-65
2022/02/07 14:23:38;;;;;;;8.30;1.85;;;;;;;5.32;75.19;99739.63;5064509;28;20025;-65